sensor_id;sensor_type;location;lat;lon;timestamp;pressure;altitude;pressure_sealevel;temperature;humidity
15382;BME280;7789;51.364;12.358;2022-12-19T00:03:20;101478.59;;;-0.11;77.31
15382;BME280;7789;51.364;12.358;2022-12-19T00:08:25;101459.06;;;-0.17;77.09
15382;BME280;7789;51.364;12.358;2022-12-19T00:13:35;101421.75;;;-0.36;77.00
15382;BME280;7789;51.364;12.358;2022-12-19T00:18:46;101439.78;;;-0.37;76.76
15382;BME280;7789;51.364;12.358;2022-12-19T00:23:58;101433.78;;;-0.36;77.21
15382;BME280;7789;51.364;12.358;2022-12-19T00:29:24;101439.69;;;-0.33;77.84
15382;BME280;7789;51.364;12.358;2022-12-19T00:35:29;101431.94;;;-0.31;77.24
15382;BME280;7789;51.364;12.358;2022-12-19T00:40:43;101442.28;;;-0.33;77.03
15382;BME280;7789;51.364;12.358;2022-12-19T00:46:11;101442.97;;;-0.26;77.60
15382;BME280;7789;51.364;12.358;2022-12-19T00:51:28;101436.78;;;-0.18;78.22
15382;BME280;7789;51.364;12.358;2022-12-19T00:56:45;101429.09;;;-0.18;78.09
15382;BME280;7789;51.364;12.358;2022-12-19T01:01:53;101415.59;;;-0.27;78.35
15382;BME280;7789;51.364;12.358;2022-12-19T01:07:05;101406.91;;;-0.20;78.28
15382;BME280;7789;51.364;12.358;2022-12-19T01:12:15;101399.03;;;-0.13;78.33
15382;BME280;7789;51.364;12.358;2022-12-19T01:17:49;101410.03;;;-0.08;78.85
15382;BME280;7789;51.364;12.358;2022-12-19T01:22:54;101422.75;;;-0.02;78.68
15382;BME280;7789;51.364;12.358;2022-12-19T01:28:15;101426.09;;;0.01;78.72
15382;BME280;7789;51.364;12.358;2022-12-19T01:33:23;101423.44;;;0.04;79.04
15382;BME280;7789;51.364;12.358;2022-12-19T01:38:30;101412.34;;;0.04;79.22
15382;BME280;7789;51.364;12.358;2022-12-19T01:43:55;101389.84;;;0.13;79.15
15382;BME280;7789;51.364;12.358;2022-12-19T01:49:17;101375.25;;;0.14;78.22
15382;BME280;7789;51.364;12.358;2022-12-19T01:54:31;101360.59;;;0.19;78.08
15382;BME280;7789;51.364;12.358;2022-12-19T01:59:41;101345.91;;;0.24;77.99
15382;BME280;7789;51.364;12.358;2022-12-19T02:05:10;101326.03;;;0.30;77.15
15382;BME280;7789;51.364;12.358;2022-12-19T02:10:20;101334.38;;;0.38;76.42
15382;BME280;7789;51.364;12.358;2022-12-19T02:15:28;101320.38;;;0.50;75.10
15382;BME280;7789;51.364;12.358;2022-12-19T02:32:04;101281.78;;;0.82;71.78
15382;BME280;7789;51.364;12.358;2022-12-19T02:37:16;101275.50;;;0.92;71.65
15382;BME280;7789;51.364;12.358;2022-12-19T02:42:44;101287.09;;;1.06;70.94
15382;BME280;7789;51.364;12.358;2022-12-19T02:47:58;101285.75;;;1.22;70.51
15382;BME280;7789;51.364;12.358;2022-12-19T02:53:16;101292.94;;;1.40;69.35
15382;BME280;7789;51.364;12.358;2022-12-19T02:58:42;101271.44;;;1.69;66.00
15382;BME280;7789;51.364;12.358;2022-12-19T03:04:04;101269.94;;;1.89;64.85
15382;BME280;7789;51.364;12.358;2022-12-19T03:09:21;101265.22;;;2.01;64.14
15382;BME280;7789;51.364;12.358;2022-12-19T03:14:32;101266.72;;;2.08;64.07
15382;BME280;7789;51.364;12.358;2022-12-19T03:19:48;101282.91;;;2.12;62.75
15382;BME280;7789;51.364;12.358;2022-12-19T03:24:58;101290.63;;;2.12;62.15
15382;BME280;7789;51.364;12.358;2022-12-19T03:30:10;101288.03;;;2.13;62.73
15382;BME280;7789;51.364;12.358;2022-12-19T03:35:34;101286.34;;;2.12;63.68
15382;BME280;7789;51.364;12.358;2022-12-19T03:40:43;101286.44;;;2.09;63.54
15382;BME280;7789;51.364;12.358;2022-12-19T03:45:54;101273.59;;;2.08;63.91
15382;BME280;7789;51.364;12.358;2022-12-19T03:51:25;101277.16;;;2.04;63.66
15382;BME280;7789;51.364;12.358;2022-12-19T03:56:48;101270.31;;;2.03;64.31
15382;BME280;7789;51.364;12.358;2022-12-19T04:02:05;101271.38;;;1.97;64.04
15382;BME280;7789;51.364;12.358;2022-12-19T04:07:30;101280.84;;;1.97;64.35
15382;BME280;7789;51.364;12.358;2022-12-19T04:12:39;101262.84;;;1.95;64.81
15382;BME280;7789;51.364;12.358;2022-12-19T04:17:51;101274.84;;;1.96;64.58
15382;BME280;7789;51.364;12.358;2022-12-19T04:23:10;101261.13;;;1.96;64.69
15382;BME280;7789;51.364;12.358;2022-12-19T04:28:35;101273.28;;;1.91;65.01
15382;BME280;7789;51.364;12.358;2022-12-19T04:34:03;101245.97;;;1.85;65.17
15382;BME280;7789;51.364;12.358;2022-12-19T04:39:17;101264.97;;;1.83;65.80
15382;BME280;7789;51.364;12.358;2022-12-19T04:44:41;101254.78;;;1.80;66.22
15382;BME280;7789;51.364;12.358;2022-12-19T04:49:53;101249.91;;;1.71;66.08
15382;BME280;7789;51.364;12.358;2022-12-19T04:55:21;101246.72;;;1.63;66.02
15382;BME280;7789;51.364;12.358;2022-12-19T05:00:31;101241.63;;;1.62;66.31
15382;BME280;7789;51.364;12.358;2022-12-19T05:05:41;101250.25;;;1.61;66.34
15382;BME280;7789;51.364;12.358;2022-12-19T05:11:03;101253.59;;;1.63;66.60
15382;BME280;7789;51.364;12.358;2022-12-19T05:16:10;101249.13;;;1.68;66.98
15382;BME280;7789;51.364;12.358;2022-12-19T05:21:47;101241.38;;;1.69;65.87
15382;BME280;7789;51.364;12.358;2022-12-19T05:27:10;101256.72;;;1.72;66.77
15382;BME280;7789;51.364;12.358;2022-12-19T05:32:30;101247.22;;;1.74;66.67
15382;BME280;7789;51.364;12.358;2022-12-19T05:38:09;101252.91;;;1.83;66.71
15382;BME280;7789;51.364;12.358;2022-12-19T05:43:18;101240.09;;;1.82;67.52
15382;BME280;7789;51.364;12.358;2022-12-19T05:48:24;101252.00;;;1.86;67.00
15382;BME280;7789;51.364;12.358;2022-12-19T05:53:36;101243.41;;;1.85;67.17
15382;BME280;7789;51.364;12.358;2022-12-19T05:59:12;101244.16;;;1.89;66.94
15382;BME280;7789;51.364;12.358;2022-12-19T06:04:27;101237.22;;;1.91;67.87
15382;BME280;7789;51.364;12.358;2022-12-19T06:09:37;101238.22;;;1.87;67.32
15382;BME280;7789;51.364;12.358;2022-12-19T06:15:06;101240.41;;;1.99;67.41
15382;BME280;7789;51.364;12.358;2022-12-19T06:20:25;101248.91;;;2.01;67.80
15382;BME280;7789;51.364;12.358;2022-12-19T06:25:57;101247.16;;;2.01;67.58
15382;BME280;7789;51.364;12.358;2022-12-19T06:31:04;101234.09;;;2.07;67.80
15382;BME280;7789;51.364;12.358;2022-12-19T06:36:18;101239.97;;;2.11;67.93
15382;BME280;7789;51.364;12.358;2022-12-19T06:41:26;101242.59;;;2.09;67.97
15382;BME280;7789;51.364;12.358;2022-12-19T06:46:52;101231.34;;;2.12;68.08
15382;BME280;7789;51.364;12.358;2022-12-19T06:52:01;101218.38;;;2.15;68.09
15382;BME280;7789;51.364;12.358;2022-12-19T06:57:10;101194.19;;;2.17;68.18
15382;BME280;7789;51.364;12.358;2022-12-19T07:02:30;101197.50;;;2.21;68.69
15382;BME280;7789;51.364;12.358;2022-12-19T07:07:48;101205.41;;;2.16;68.71
15382;BME280;7789;51.364;12.358;2022-12-19T07:13:04;101197.66;;;2.16;68.90
15382;BME280;7789;51.364;12.358;2022-12-19T07:18:16;101204.34;;;2.22;68.71
15382;BME280;7789;51.364;12.358;2022-12-19T07:23:28;101215.31;;;2.28;68.96
15382;BME280;7789;51.364;12.358;2022-12-19T07:28:34;101220.47;;;2.28;68.44
15382;BME280;7789;51.364;12.358;2022-12-19T07:33:44;101210.81;;;2.33;68.39
15382;BME280;7789;51.364;12.358;2022-12-19T07:38:52;101220.47;;;2.28;68.01
15382;BME280;7789;51.364;12.358;2022-12-19T07:44:12;101245.34;;;2.29;68.33
15382;BME280;7789;51.364;12.358;2022-12-19T07:49:32;101226.38;;;2.32;68.61
15382;BME280;7789;51.364;12.358;2022-12-19T07:54:51;101218.53;;;2.35;68.28
15382;BME280;7789;51.364;12.358;2022-12-19T08:00:13;101217.63;;;2.36;68.07
15382;BME280;7789;51.364;12.358;2022-12-19T08:05:20;101234.66;;;2.40;68.00
15382;BME280;7789;51.364;12.358;2022-12-19T08:10:33;101232.88;;;2.42;68.55
15382;BME280;7789;51.364;12.358;2022-12-19T08:15:41;101217.97;;;2.50;68.25
15382;BME280;7789;51.364;12.358;2022-12-19T08:21:11;101222.75;;;2.60;67.81
15382;BME280;7789;51.364;12.358;2022-12-19T08:26:39;101211.41;;;2.64;68.29
15382;BME280;7789;51.364;12.358;2022-12-19T08:32:05;101211.09;;;2.73;68.31
15382;BME280;7789;51.364;12.358;2022-12-19T08:43:47;101197.81;;;2.84;69.11
15382;BME280;7789;51.364;12.358;2022-12-19T08:49:03;101193.59;;;2.81;69.47
15382;BME280;7789;51.364;12.358;2022-12-19T08:54:13;101201.94;;;2.88;70.50
15382;BME280;7789;51.364;12.358;2022-12-19T08:59:22;101186.84;;;3.00;71.38
15382;BME280;7789;51.364;12.358;2022-12-19T09:04:33;101171.22;;;3.03;72.01
15382;BME280;7789;51.364;12.358;2022-12-19T09:09:59;101175.56;;;3.03;73.67
15382;BME280;7789;51.364;12.358;2022-12-19T09:15:19;101175.56;;;3.03;75.59
15382;BME280;7789;51.364;12.358;2022-12-19T09:20:34;101158.31;;;3.03;76.64
15382;BME280;7789;51.364;12.358;2022-12-19T09:25:41;101158.38;;;3.02;78.16
15382;BME280;7789;51.364;12.358;2022-12-19T09:30:58;101151.28;;;3.07;79.41
15382;BME280;7789;51.364;12.358;2022-12-19T09:36:11;101152.06;;;3.09;79.96
15382;BME280;7789;51.364;12.358;2022-12-19T09:41:45;101154.41;;;3.15;80.74
15382;BME280;7789;51.364;12.358;2022-12-19T09:47:20;101158.88;;;3.11;83.80
15382;BME280;7789;51.364;12.358;2022-12-19T09:52:37;101150.13;;;3.14;83.75
15382;BME280;7789;51.364;12.358;2022-12-19T09:57:50;101141.75;;;3.09;85.86
15382;BME280;7789;51.364;12.358;2022-12-19T10:03:04;101132.25;;;3.09;86.76
15382;BME280;7789;51.364;12.358;2022-12-19T10:08:16;101127.19;;;3.06;87.95
15382;BME280;7789;51.364;12.358;2022-12-19T10:13:34;101126.41;;;3.04;89.63
15382;BME280;7789;51.364;12.358;2022-12-19T10:19:02;101123.84;;;3.04;90.69
15382;BME280;7789;51.364;12.358;2022-12-19T10:24:47;101117.13;;;3.00;91.89
15382;BME280;7789;51.364;12.358;2022-12-19T10:30:14;101105.88;;;3.01;92.57
15382;BME280;7789;51.364;12.358;2022-12-19T10:35:31;101118.75;;;3.03;93.54
15382;BME280;7789;51.364;12.358;2022-12-19T10:40:51;101104.94;;;3.04;94.14
15382;BME280;7789;51.364;12.358;2022-12-19T10:46:08;101095.38;;;3.06;95.45
15382;BME280;7789;51.364;12.358;2022-12-19T10:51:27;101077.25;;;3.07;96.42
15382;BME280;7789;51.364;12.358;2022-12-19T10:56:37;101073.69;;;3.10;97.03
15382;BME280;7789;51.364;12.358;2022-12-19T11:01:43;101060.88;;;3.08;97.77
15382;BME280;7789;51.364;12.358;2022-12-19T11:07:18;101052.25;;;3.08;99.42
15382;BME280;7789;51.364;12.358;2022-12-19T11:12:27;101036.91;;;3.05;100.00
15382;BME280;7789;51.364;12.358;2022-12-19T11:18:10;101013.53;;;3.08;100.00
15382;BME280;7789;51.364;12.358;2022-12-19T11:23:52;101015.06;;;3.12;100.00
15382;BME280;7789;51.364;12.358;2022-12-19T11:29:24;100995.91;;;3.17;100.00
15382;BME280;7789;51.364;12.358;2022-12-19T11:35:10;100996.81;;;3.16;100.00
15382;BME280;7789;51.364;12.358;2022-12-19T11:40:30;100992.38;;;3.20;100.00
15382;BME280;7789;51.364;12.358;2022-12-19T11:45:51;100983.78;;;3.19;100.00
15382;BME280;7789;51.364;12.358;2022-12-19T11:51:15;100982.88;;;3.20;100.00
15382;BME280;7789;51.364;12.358;2022-12-19T11:56:28;100969.91;;;3.22;100.00
15382;BME280;7789;51.364;12.358;2022-12-19T12:02:03;100962.78;;;3.27;100.00
15382;BME280;7789;51.364;12.358;2022-12-19T12:07:14;100960.06;;;3.30;100.00
15382;BME280;7789;51.364;12.358;2022-12-19T12:12:59;100948.59;;;3.37;100.00
15382;BME280;7789;51.364;12.358;2022-12-19T12:18:44;100946.97;;;3.34;100.00
15382;BME280;7789;51.364;12.358;2022-12-19T12:24:31;100946.00;;;3.37;100.00
15382;BME280;7789;51.364;12.358;2022-12-19T12:30:14;100951.75;;;3.43;100.00
15382;BME280;7789;51.364;12.358;2022-12-19T12:35:56;100938.69;;;3.46;100.00
15382;BME280;7789;51.364;12.358;2022-12-19T12:41:36;100925.63;;;3.49;100.00
15382;BME280;7789;51.364;12.358;2022-12-19T12:47:16;100931.66;;;3.50;100.00
15382;BME280;7789;51.364;12.358;2022-12-19T12:52:37;100929.84;;;3.52;100.00
15382;BME280;7789;51.364;12.358;2022-12-19T12:57:45;100916.97;;;3.50;100.00
15382;BME280;7789;51.364;12.358;2022-12-19T13:02:55;100920.19;;;3.55;100.00
15382;BME280;7789;51.364;12.358;2022-12-19T13:14:02;100909.31;;;3.67;100.00
15382;BME280;7789;51.364;12.358;2022-12-19T13:19:15;100915.09;;;3.72;100.00
15382;BME280;7789;51.364;12.358;2022-12-19T13:24:38;100901.16;;;3.76;100.00
15382;BME280;7789;51.364;12.358;2022-12-19T13:29:53;100910.63;;;3.75;100.00
15382;BME280;7789;51.364;12.358;2022-12-19T13:35:32;100914.69;;;3.81;100.00
15382;BME280;7789;51.364;12.358;2022-12-19T13:41:00;100919.78;;;3.82;100.00
15382;BME280;7789;51.364;12.358;2022-12-19T13:46:35;100920.69;;;3.81;100.00
15382;BME280;7789;51.364;12.358;2022-12-19T13:51:55;100921.25;;;3.88;100.00
15382;BME280;7789;51.364;12.358;2022-12-19T13:57:21;100906.44;;;3.91;100.00
15382;BME280;7789;51.364;12.358;2022-12-19T14:02:30;100909.03;;;3.91;100.00
15382;BME280;7789;51.364;12.358;2022-12-19T14:07:49;100906.28;;;3.94;100.00
15382;BME280;7789;51.364;12.358;2022-12-19T14:12:59;100890.44;;;4.02;100.00
15382;BME280;7789;51.364;12.358;2022-12-19T14:18:47;100896.31;;;4.05;100.00
15382;BME280;7789;51.364;12.358;2022-12-19T14:24:20;100901.31;;;4.08;100.00
15382;BME280;7789;51.364;12.358;2022-12-19T14:29:27;100894.28;;;4.12;100.00
15382;BME280;7789;51.364;12.358;2022-12-19T14:35:04;100894.28;;;4.12;100.00
15382;BME280;7789;51.364;12.358;2022-12-19T14:40:40;100890.69;;;4.14;100.00
15382;BME280;7789;51.364;12.358;2022-12-19T14:46:29;100893.91;;;4.19;100.00
15382;BME280;7789;51.364;12.358;2022-12-19T14:52:00;100904.09;;;4.22;100.00
15382;BME280;7789;51.364;12.358;2022-12-19T14:57:32;100903.81;;;4.28;100.00
15382;BME280;7789;51.364;12.358;2022-12-19T15:03:04;100902.84;;;4.31;100.00
15382;BME280;7789;51.364;12.358;2022-12-19T15:08:27;100901.63;;;4.38;100.00
15382;BME280;7789;51.364;12.358;2022-12-19T15:13:58;100889.31;;;4.43;100.00
15382;BME280;7789;51.364;12.358;2022-12-19T15:19:30;100906.25;;;4.48;100.00
15382;BME280;7789;51.364;12.358;2022-12-19T15:24:35;100907.94;;;4.49;100.00
15382;BME280;7789;51.364;12.358;2022-12-19T15:29:52;100897.47;;;4.52;100.00
15382;BME280;7789;51.364;12.358;2022-12-19T15:34:59;100892.28;;;4.52;100.00
15382;BME280;7789;51.364;12.358;2022-12-19T15:40:05;100893.97;;;4.53;100.00
15382;BME280;7789;51.364;12.358;2022-12-19T15:45:15;100900.72;;;4.56;100.00
15382;BME280;7789;51.364;12.358;2022-12-19T15:50:29;100903.03;;;4.62;100.00
15382;BME280;7789;51.364;12.358;2022-12-19T15:55:49;100887.41;;;4.63;100.00
15382;BME280;7789;51.364;12.358;2022-12-19T16:01:02;100872.50;;;4.68;100.00
15382;BME280;7789;51.364;12.358;2022-12-19T16:06:15;100881.56;;;4.77;100.00
15382;BME280;7789;51.364;12.358;2022-12-19T16:11:23;100881.41;;;4.80;100.00
15382;BME280;7789;51.364;12.358;2022-12-19T16:16:29;100889.06;;;4.81;100.00
15382;BME280;7789;51.364;12.358;2022-12-19T16:21:36;100891.50;;;4.84;100.00
15382;BME280;7789;51.364;12.358;2022-12-19T16:26:43;100887.19;;;4.85;100.00
15382;BME280;7789;51.364;12.358;2022-12-19T16:37:29;100879.19;;;4.89;100.00
15382;BME280;7789;51.364;12.358;2022-12-19T16:42:54;100878.19;;;4.92;100.00
15382;BME280;7789;51.364;12.358;2022-12-19T16:48:15;100885.81;;;4.95;100.00
15382;BME280;7789;51.364;12.358;2022-12-19T16:53:24;100889.22;;;4.95;100.00
15382;BME280;7789;51.364;12.358;2022-12-19T16:58:39;100885.72;;;4.96;100.00
15382;BME280;7789;51.364;12.358;2022-12-19T17:04:17;100885.66;;;4.98;100.00
15382;BME280;7789;51.364;12.358;2022-12-19T17:09:24;100882.06;;;5.00;100.00
15382;BME280;7789;51.364;12.358;2022-12-19T17:14:30;100866.22;;;5.06;100.00
15382;BME280;7789;51.364;12.358;2022-12-19T17:19:39;100872.91;;;5.10;100.00
15382;BME280;7789;51.364;12.358;2022-12-19T17:24:47;100876.34;;;5.11;100.00
15382;BME280;7789;51.364;12.358;2022-12-19T17:29:53;100880.53;;;5.13;100.00
15382;BME280;7789;51.364;12.358;2022-12-19T17:35:13;100883.69;;;5.18;100.00
15382;BME280;7789;51.364;12.358;2022-12-19T17:40:28;100889.97;;;5.14;100.00
15382;BME280;7789;51.364;12.358;2022-12-19T17:45:35;100889.22;;;5.12;100.00
15382;BME280;7789;51.364;12.358;2022-12-19T17:50:45;100876.94;;;5.16;100.00
15382;BME280;7789;51.364;12.358;2022-12-19T17:55:49;100880.19;;;5.19;100.00
15382;BME280;7789;51.364;12.358;2022-12-19T18:00:54;100888.13;;;5.16;100.00
15382;BME280;7789;51.364;12.358;2022-12-19T18:06:20;100869.81;;;5.19;100.00
15382;BME280;7789;51.364;12.358;2022-12-19T18:11:33;100851.69;;;5.19;100.00
15382;BME280;7789;51.364;12.358;2022-12-19T18:16:45;100847.28;;;5.21;100.00
15382;BME280;7789;51.364;12.358;2022-12-19T18:21:58;100844.59;;;5.23;100.00
15382;BME280;7789;51.364;12.358;2022-12-19T18:27:13;100846.28;;;5.24;100.00
15382;BME280;7789;51.364;12.358;2022-12-19T18:32:30;100856.56;;;5.25;100.00
15382;BME280;7789;51.364;12.358;2022-12-19T18:37:37;100858.47;;;5.22;100.00
15382;BME280;7789;51.364;12.358;2022-12-19T18:42:44;100842.88;;;5.23;100.00
15382;BME280;7789;51.364;12.358;2022-12-19T18:47:59;100823.81;;;5.24;100.00
15382;BME280;7789;51.364;12.358;2022-12-19T18:53:10;100829.06;;;5.23;100.00
15382;BME280;7789;51.364;12.358;2022-12-19T18:58:15;100812.75;;;5.21;100.00
15382;BME280;7789;51.364;12.358;2022-12-19T19:03:29;100810.34;;;5.18;100.00
15382;BME280;7789;51.364;12.358;2022-12-19T19:08:45;100812.75;;;5.21;100.00
15382;BME280;7789;51.364;12.358;2022-12-19T19:13:50;100802.31;;;5.22;100.00
15382;BME280;7789;51.364;12.358;2022-12-19T19:19:00;100806.47;;;5.25;100.00
15382;BME280;7789;51.364;12.358;2022-12-19T19:24:12;100801.97;;;5.28;100.00
15382;BME280;7789;51.364;12.358;2022-12-19T19:29:29;100801.06;;;5.29;100.00
15382;BME280;7789;51.364;12.358;2022-12-19T19:34:39;100787.28;;;5.29;100.00
15382;BME280;7789;51.364;12.358;2022-12-19T19:39:46;100793.34;;;5.28;100.00
15382;BME280;7789;51.364;12.358;2022-12-19T19:44:57;100796.06;;;5.26;100.00
15382;BME280;7789;51.364;12.358;2022-12-19T19:50:02;100780.50;;;5.26;100.00
15382;BME280;7789;51.364;12.358;2022-12-19T19:55:09;100788.19;;;5.28;100.00
15382;BME280;7789;51.364;12.358;2022-12-19T20:00:17;100792.59;;;5.26;100.00
15382;BME280;7789;51.364;12.358;2022-12-19T20:05:27;100797.91;;;5.24;100.00
15382;BME280;7789;51.364;12.358;2022-12-19T20:10:37;100804.00;;;5.23;100.00
15382;BME280;7789;51.364;12.358;2022-12-19T20:15:41;100804.16;;;5.20;100.00
15382;BME280;7789;51.364;12.358;2022-12-19T20:20:56;100791.34;;;5.17;100.00
15382;BME280;7789;51.364;12.358;2022-12-19T20:26:08;100791.09;;;5.22;100.00
15382;BME280;7789;51.364;12.358;2022-12-19T20:31:29;100788.44;;;5.23;100.00
15382;BME280;7789;51.364;12.358;2022-12-19T20:36:37;100794.22;;;5.28;100.00
15382;BME280;7789;51.364;12.358;2022-12-19T20:41:46;100799.97;;;5.33;100.00
15382;BME280;7789;51.364;12.358;2022-12-19T20:46:52;100800.50;;;5.39;100.00
15382;BME280;7789;51.364;12.358;2022-12-19T20:52:03;100808.72;;;5.47;100.00
15382;BME280;7789;51.364;12.358;2022-12-19T20:57:11;100797.13;;;5.53;99.53
15382;BME280;7789;51.364;12.358;2022-12-19T21:02:28;100814.06;;;5.60;99.27
15382;BME280;7789;51.364;12.358;2022-12-19T21:07:55;100804.50;;;5.60;98.64
15382;BME280;7789;51.364;12.358;2022-12-19T21:13:17;100808.53;;;5.66;98.13
15382;BME280;7789;51.364;12.358;2022-12-19T21:18:23;100808.44;;;5.67;97.57
15382;BME280;7789;51.364;12.358;2022-12-19T21:23:31;100822.97;;;5.70;97.06
15382;BME280;7789;51.364;12.358;2022-12-19T21:28:39;100800.75;;;5.66;96.85
15382;BME280;7789;51.364;12.358;2022-12-19T21:33:48;100787.78;;;5.66;96.45
15382;BME280;7789;51.364;12.358;2022-12-19T21:38:57;100819.75;;;5.66;97.29
15382;BME280;7789;51.364;12.358;2022-12-19T21:44:04;100805.09;;;5.65;96.57
15382;BME280;7789;51.364;12.358;2022-12-19T21:49:10;100826.59;;;5.67;96.79
15382;BME280;7789;51.364;12.358;2022-12-19T21:54:17;100816.31;;;5.66;96.47
15382;BME280;7789;51.364;12.358;2022-12-19T21:59:37;100802.16;;;5.71;96.37
15382;BME280;7789;51.364;12.358;2022-12-19T22:04:42;100787.53;;;5.70;96.28
15382;BME280;7789;51.364;12.358;2022-12-19T22:09:59;100784.69;;;5.75;96.01
15382;BME280;7789;51.364;12.358;2022-12-19T22:15:15;100799.19;;;5.79;95.94
15382;BME280;7789;51.364;12.358;2022-12-19T22:20:43;100809.56;;;5.79;96.05
15382;BME280;7789;51.364;12.358;2022-12-19T22:26:00;100807.72;;;5.81;95.73
15382;BME280;7789;51.364;12.358;2022-12-19T22:31:17;100798.94;;;5.83;95.58
15382;BME280;7789;51.364;12.358;2022-12-19T22:36:25;100782.69;;;5.80;95.78
15382;BME280;7789;51.364;12.358;2022-12-19T22:41:34;100769.03;;;5.76;96.00
15382;BME280;7789;51.364;12.358;2022-12-19T22:46:48;100752.66;;;5.76;95.91
15382;BME280;7789;51.364;12.358;2022-12-19T22:51:54;100759.94;;;5.69;95.53
15382;BME280;7789;51.364;12.358;2022-12-19T22:57:08;100754.75;;;5.69;95.65
15382;BME280;7789;51.364;12.358;2022-12-19T23:02:15;100751.47;;;5.66;95.83
15382;BME280;7789;51.364;12.358;2022-12-19T23:07:25;100749.31;;;5.58;96.08
15382;BME280;7789;51.364;12.358;2022-12-19T23:12:29;100733.75;;;5.58;96.71
15382;BME280;7789;51.364;12.358;2022-12-19T23:17:38;100736.16;;;5.61;96.72
15382;BME280;7789;51.364;12.358;2022-12-19T23:22:47;100734.81;;;5.70;97.15
15382;BME280;7789;51.364;12.358;2022-12-19T23:27:51;100728.31;;;5.78;97.23
15382;BME280;7789;51.364;12.358;2022-12-19T23:33:20;100708.78;;;5.87;96.94
15382;BME280;7789;51.364;12.358;2022-12-19T23:38:39;100702.53;;;5.91;96.86
15382;BME280;7789;51.364;12.358;2022-12-19T23:43:49;100706.69;;;5.93;96.72
15382;BME280;7789;51.364;12.358;2022-12-19T23:49:02;100703.75;;;5.99;96.64
15382;BME280;7789;51.364;12.358;2022-12-19T23:54:11;100688.75;;;6.04;96.30
15382;BME280;7789;51.364;12.358;2022-12-19T23:59:22;100680.72;;;6.09;95.54
